Time;durP1;ratioP1;P1;durP2;ratioP2;P2;SDS_P1;SDS_P2;PMS_P1;PMS_P2;Temp;Humidity;BMP_temperature;BMP_pressure;BME280_temperature;BME280_humidity;BME280_pressure;Samples;Min_cycle;Max_cycle;Signal;HPM_P1;HPM_P2
2023/12/07 00:00:52;;;;;;;4.60;2.92;;;3.20;78.80;;;;;;5065029;28;20419;-62
2023/12/07 00:03:17;;;;;;;4.40;2.92;;;3.20;78.90;;;;;;5051422;28;20037;-62
2023/12/07 00:05:43;;;;;;;3.92;2.70;;;3.20;78.90;;;;;;5048361;28;20116;-61
2023/12/07 00:08:12;;;;;;;5.53;2.78;;;3.20;78.90;;;;;;5057849;28;20059;-61
2023/12/07 00:10:37;;;;;;;4.60;3.53;;;3.20;78.90;;;;;;5054712;28;20060;-63
2023/12/07 00:13:03;;;;;;;4.85;2.50;;;3.10;78.90;;;;;;5050464;28;20099;-61
2023/12/07 00:15:29;;;;;;;7.15;4.38;;;3.10;79.00;;;;;;5055690;28;20076;-61
2023/12/07 00:17:54;;;;;;;5.88;3.42;;;3.10;78.90;;;;;;5051211;28;20058;-61
2023/12/07 00:20:20;;;;;;;6.18;3.50;;;3.00;79.00;;;;;;5052135;28;20040;-61
2023/12/07 00:22:46;;;;;;;4.90;3.53;;;3.00;79.00;;;;;;5057993;28;20040;-61
2023/12/07 00:25:12;;;;;;;9.00;3.47;;;3.00;79.00;;;;;;5058526;28;20052;-61
2023/12/07 00:27:37;;;;;;;3.85;2.78;;;3.00;79.10;;;;;;5037352;28;20393;-61
2023/12/07 00:30:03;;;;;;;6.78;4.30;;;3.00;79.10;;;;;;5050098;28;20557;-62
2023/12/07 00:32:29;;;;;;;6.60;3.67;;;3.00;79.00;;;;;;5051248;28;20055;-62
2023/12/07 00:34:55;;;;;;;4.97;3.35;;;3.00;79.10;;;;;;5049407;28;20037;-61
2023/12/07 00:37:21;;;;;;;4.35;2.88;;;3.00;79.10;;;;;;5052537;28;20035;-62
2023/12/07 00:39:46;;;;;;;5.57;3.53;;;3.00;79.00;;;;;;5053013;28;20025;-62
2023/12/07 00:42:12;;;;;;;7.35;3.50;;;3.00;78.80;;;;;;5054982;28;20032;-62
2023/12/07 00:44:41;;;;;;;5.55;3.33;;;3.00;78.80;;;;;;5053083;28;20116;-62
2023/12/07 00:47:07;;;;;;;5.75;4.05;;;2.90;78.90;;;;;;5055764;28;20514;-63
2023/12/07 00:49:33;;;;;;;6.28;3.83;;;2.90;79.00;;;;;;5046645;28;20052;-63
2023/12/07 00:51:59;;;;;;;4.40;2.83;;;2.90;79.00;;;;;;5045644;28;20396;-63
2023/12/07 00:54:25;;;;;;;7.60;3.10;;;2.90;78.80;;;;;;5047744;28;20020;-63
2023/12/07 00:56:51;;;;;;;5.30;3.13;;;2.90;78.70;;;;;;5053597;28;20025;-63
2023/12/07 00:59:16;;;;;;;5.13;3.38;;;2.90;78.70;;;;;;5053930;28;20127;-62
2023/12/07 01:01:42;;;;;;;4.63;2.95;;;2.90;78.80;;;;;;5049524;28;20460;-62
2023/12/07 01:04:08;;;;;;;7.57;3.80;;;2.80;78.70;;;;;;5053970;28;20033;-62
2023/12/07 01:06:34;;;;;;;4.10;2.63;;;2.80;78.70;;;;;;5054542;28;20025;-62
2023/12/07 01:08:59;;;;;;;3.88;3.30;;;2.80;78.90;;;;;;5045985;28;20037;-62
2023/12/07 01:11:25;;;;;;;4.20;2.45;;;2.80;78.90;;;;;;5050274;28;20037;-63
2023/12/07 01:13:51;;;;;;;6.07;3.50;;;2.80;79.00;;;;;;5049758;28;20160;-62
2023/12/07 01:16:16;;;;;;;4.13;3.15;;;2.70;78.90;;;;;;5048504;28;20256;-62
2023/12/07 01:18:42;;;;;;;6.05;3.65;;;2.70;78.90;;;;;;5052305;28;20406;-63
2023/12/07 01:21:08;;;;;;;3.75;3.10;;;2.70;78.90;;;;;;5056066;28;20082;-63
2023/12/07 01:23:33;;;;;;;5.57;3.65;;;2.70;78.90;;;;;;5054172;28;20029;-63
2023/12/07 01:26:02;;;;;;;5.00;3.58;;;2.70;78.80;;;;;;5051362;28;20053;-62
2023/12/07 01:28:28;;;;;;;5.20;3.45;;;2.70;78.70;;;;;;5052851;28;20098;-63
2023/12/07 01:30:53;;;;;;;5.13;2.88;;;2.70;78.60;;;;;;5052442;28;20053;-62
2023/12/07 01:33:19;;;;;;;7.63;3.38;;;2.70;78.70;;;;;;5035418;28;20561;-62
2023/12/07 01:35:45;;;;;;;6.95;2.90;;;2.70;78.70;;;;;;5058166;28;20029;-63
2023/12/07 01:38:11;;;;;;;6.15;3.28;;;2.70;78.70;;;;;;5056991;28;20035;-62
2023/12/07 01:40:36;;;;;;;4.38;2.88;;;2.70;79.10;;;;;;5051286;28;20541;-63
2023/12/07 01:43:02;;;;;;;4.18;2.95;;;2.60;79.10;;;;;;5062632;28;20044;-63
2023/12/07 01:45:28;;;;;;;6.07;4.00;;;2.60;79.10;;;;;;5046020;28;20057;-63
2023/12/07 01:47:56;;;;;;;2.85;2.45;;;2.60;79.10;;;;;;5063636;28;20476;-62
2023/12/07 01:50:23;;;;;;;3.08;2.72;;;2.60;79.10;;;;;;5052618;28;20023;-62
2023/12/07 01:52:55;;;;;;;5.38;3.30;;;2.60;79.00;;;;;;5040077;28;20450;-62
2023/12/07 01:55:23;;;;;;;4.97;2.70;;;2.60;79.00;;;;;;5058550;28;20095;-62
2023/12/07 01:57:49;;;;;;;6.50;3.53;;;2.60;79.10;;;;;;5053929;28;20025;-62
2023/12/07 02:00:16;;;;;;;4.63;2.55;;;2.50;79.00;;;;;;5051134;28;20040;-63
2023/12/07 02:02:43;;;;;;;6.90;3.28;;;2.60;79.10;;;;;;5060957;28;20036;-62
2023/12/07 02:05:09;;;;;;;5.40;2.80;;;2.60;79.10;;;;;;5060010;28;20036;-62
2023/12/07 02:07:35;;;;;;;5.00;3.03;;;2.50;79.00;;;;;;5061879;28;20044;-62
2023/12/07 02:10:00;;;;;;;6.07;3.35;;;2.50;79.10;;;;;;5063841;28;20032;-62
2023/12/07 02:12:29;;;;;;;4.72;2.58;;;2.50;79.10;;;;;;5056094;28;20032;-62
2023/12/07 02:14:56;;;;;;;3.53;3.22;;;2.50;79.10;;;;;;5055583;28;20033;-62
2023/12/07 02:17:26;;;;;;;3.25;2.63;;;2.50;79.00;;;;;;5058539;28;20033;-62
2023/12/07 02:20:14;;;;;;;7.97;2.60;;;2.50;78.90;;;;;;5061189;28;20023;-62
2023/12/07 02:22:52;;;;;;;4.78;2.72;;;2.50;78.80;;;;;;5058668;28;20403;-63
2023/12/07 02:25:23;;;;;;;5.30;3.35;;;2.50;78.80;;;;;;5059171;28;20064;-63
2023/12/07 02:27:49;;;;;;;4.25;2.88;;;2.50;78.90;;;;;;5059909;28;20143;-63
2023/12/07 02:30:15;;;;;;;4.28;2.95;;;2.50;78.90;;;;;;5059665;28;20119;-63
2023/12/07 02:32:43;;;;;;;5.30;3.20;;;2.50;78.90;;;;;;5055627;28;20032;-62
2023/12/07 02:35:12;;;;;;;7.97;3.08;;;2.60;78.90;;;;;;5054990;28;20047;-62
2023/12/07 02:37:46;;;;;;;3.60;2.70;;;2.60;78.90;;;;;;5049967;28;20416;-63
2023/12/07 02:40:14;;;;;;;4.38;2.88;;;2.60;79.60;;;;;;5049560;28;20104;-63
2023/12/07 02:42:42;;;;;;;7.95;3.53;;;2.60;79.00;;;;;;5058869;28;20039;-63
2023/12/07 02:45:09;;;;;;;4.72;3.22;;;2.60;79.10;;;;;;5056595;28;20029;-62
2023/12/07 02:47:35;;;;;;;4.95;2.95;;;2.60;79.10;;;;;;5053794;28;20116;-62
2023/12/07 02:50:01;;;;;;;4.05;2.28;;;2.60;79.10;;;;;;5062876;28;20028;-62
2023/12/07 02:52:27;;;;;;;5.03;3.10;;;2.70;79.20;;;;;;5052892;28;20106;-62
2023/12/07 02:54:53;;;;;;;3.60;2.25;;;2.70;79.20;;;;;;5058820;28;21022;-62
2023/12/07 02:57:18;;;;;;;5.28;2.97;;;2.70;79.20;;;;;;5065293;28;20037;-62
2023/12/07 02:59:44;;;;;;;4.78;3.17;;;2.70;79.20;;;;;;5066456;28;20419;-63
2023/12/07 03:02:10;;;;;;;5.53;3.20;;;2.80;79.20;;;;;;5054974;28;20032;-63
2023/12/07 03:04:35;;;;;;;6.45;3.35;;;2.80;79.30;;;;;;5060520;28;20033;-62
2023/12/07 03:07:01;;;;;;;6.82;3.47;;;2.80;79.50;;;;;;5060293;28;20120;-62
2023/12/07 03:09:27;;;;;;;6.07;4.20;;;2.80;79.50;;;;;;5060233;28;20037;-62
2023/12/07 03:11:53;;;;;;;5.53;3.78;;;2.80;79.60;;;;;;5056390;28;20037;-63
2023/12/07 03:14:19;;;;;;;5.75;3.45;;;2.90;79.70;;;;;;5059620;28;20546;-62
2023/12/07 03:16:45;;;;;;;7.68;3.85;;;2.90;79.70;;;;;;5054573;28;20464;-62
2023/12/07 03:19:11;;;;;;;6.07;4.15;;;2.90;79.80;;;;;;5053908;28;20025;-62
2023/12/07 03:21:40;;;;;;;13.75;4.90;;;2.90;79.80;;;;;;5056045;28;20120;-62
2023/12/07 03:24:10;;;;;;;6.18;3.53;;;2.90;79.80;;;;;;5060994;28;20491;-63
2023/12/07 03:26:36;;;;;;;5.50;3.70;;;2.90;80.00;;;;;;5051527;28;20384;-63
2023/12/07 03:29:02;;;;;;;8.88;4.72;;;2.90;80.10;;;;;;5054932;28;20036;-63
2023/12/07 03:31:28;;;;;;;16.38;4.35;;;2.90;80.20;;;;;;5057683;28;20025;-63
2023/12/07 03:33:55;;;;;;;8.02;5.13;;;2.90;80.30;;;;;;5059174;28;20021;-63
2023/12/07 03:36:22;;;;;;;6.53;3.65;;;3.00;80.30;;;;;;5058894;28;20029;-62
2023/12/07 03:38:48;;;;;;;23.95;5.22;;;3.00;80.30;;;;;;5061440;28;20057;-63
2023/12/07 03:41:14;;;;;;;5.53;3.72;;;3.00;80.40;;;;;;5061242;28;20476;-63
2023/12/07 03:43:40;;;;;;;7.55;4.40;;;3.00;80.40;;;;;;5057661;28;20116;-62
2023/12/07 03:46:06;;;;;;;8.55;5.13;;;3.00;80.40;;;;;;5060054;28;20060;-62
2023/12/07 03:48:32;;;;;;;7.97;4.30;;;3.00;80.40;;;;;;5060448;28;20064;-62
2023/12/07 03:50:58;;;;;;;12.85;5.05;;;3.00;80.50;;;;;;5062516;28;20025;-63
2023/12/07 03:53:24;;;;;;;8.20;5.10;;;3.00;80.40;;;;;;5059434;28;20086;-62
2023/12/07 03:55:50;;;;;;;9.10;4.78;;;3.10;80.40;;;;;;5054171;28;20025;-63
2023/12/07 03:58:15;;;;;;;8.00;4.75;;;3.10;80.50;;;;;;5052994;28;20400;-63
2023/12/07 04:00:41;;;;;;;7.50;4.28;;;3.10;80.50;;;;;;5054293;28;20032;-62
2023/12/07 04:03:07;;;;;;;8.88;4.10;;;3.10;80.60;;;;;;5055600;28;20055;-63
2023/12/07 04:05:33;;;;;;;6.38;4.93;;;3.10;80.60;;;;;;5051101;28;20048;-62
2023/12/07 04:07:59;;;;;;;8.25;3.55;;;3.20;80.60;;;;;;5052004;28;20052;-63
2023/12/07 04:10:25;;;;;;;7.70;4.40;;;3.20;80.60;;;;;;5055951;28;20092;-62
2023/12/07 04:12:54;;;;;;;8.75;3.92;;;3.20;80.60;;;;;;5051068;28;20175;-62
2023/12/07 04:15:20;;;;;;;13.15;4.57;;;3.20;80.60;;;;;;5054935;28;20074;-63
2023/12/07 04:17:46;;;;;;;4.93;3.83;;;3.20;80.60;;;;;;5049481;28;20030;-62
2023/12/07 04:20:13;;;;;;;7.38;3.60;;;3.20;80.70;;;;;;5051828;28;20036;-62
2023/12/07 04:22:39;;;;;;;6.53;4.72;;;3.20;80.70;;;;;;5052580;28;20032;-63
2023/12/07 04:25:05;;;;;;;5.78;4.00;;;3.20;80.80;;;;;;5052657;28;20040;-63
2023/12/07 04:27:32;;;;;;;5.75;3.45;;;3.20;80.70;;;;;;5049926;28;20041;-62
2023/12/07 04:29:58;;;;;;;8.02;4.05;;;3.20;80.80;;;;;;5055285;28;20033;-62
2023/12/07 04:32:23;;;;;;;5.70;4.07;;;3.20;80.80;;;;;;5049093;28;20098;-63
2023/12/07 04:34:49;;;;;;;7.18;4.60;;;3.20;80.80;;;;;;5050566;28;20037;-63
2023/12/07 04:37:15;;;;;;;5.07;3.80;;;3.10;80.90;;;;;;5050214;28;20037;-62
2023/12/07 04:39:41;;;;;;;4.80;3.08;;;3.10;81.00;;;;;;5053924;28;20064;-62
2023/12/07 04:42:07;;;;;;;4.80;3.55;;;3.10;81.00;;;;;;5048705;28;20045;-63
2023/12/07 04:44:33;;;;;;;4.13;3.15;;;3.10;81.00;;;;;;5047573;28;20032;-63
2023/12/07 04:47:02;;;;;;;5.78;3.83;;;3.10;80.90;;;;;;5048557;28;20107;-63
2023/12/07 04:49:28;;;;;;;4.53;3.30;;;3.00;80.90;;;;;;5054222;28;20056;-63
2023/12/07 04:51:53;;;;;;;4.97;3.65;;;3.00;80.90;;;;;;5050753;28;20068;-63
2023/12/07 04:54:19;;;;;;;5.93;3.42;;;3.00;81.00;;;;;;5052419;28;20036;-63
2023/12/07 04:56:45;;;;;;;4.97;3.45;;;3.00;80.80;;;;;;5050080;28;20029;-63
2023/12/07 04:59:11;;;;;;;4.72;3.42;;;3.10;80.80;;;;;;5053763;28;20067;-62
2023/12/07 05:01:37;;;;;;;6.78;4.93;;;3.10;80.80;;;;;;5060521;28;20565;-63
2023/12/07 05:04:05;;;;;;;5.30;3.22;;;3.10;81.00;;;;;;5055475;28;20017;-63
2023/12/07 05:06:32;;;;;;;6.43;4.55;;;3.10;81.20;;;;;;5047036;28;20040;-63
2023/12/07 05:08:58;;;;;;;7.90;3.45;;;3.10;81.30;;;;;;5049774;28;20025;-63
2023/12/07 05:11:24;;;;;;;5.22;4.28;;;3.10;81.30;;;;;;5052343;28;20021;-63
2023/12/07 05:13:50;;;;;;;7.40;3.50;;;3.10;81.40;;;;;;5057286;28;20029;-63
2023/12/07 05:16:16;;;;;;;5.70;3.35;;;3.20;81.50;;;;;;5061976;28;20504;-63
2023/12/07 05:18:41;;;;;;;13.27;3.88;;;3.20;81.40;;;;;;5062046;28;20036;-63
2023/12/07 05:21:08;;;;;;;15.15;4.97;;;3.20;81.40;;;;;;5056380;28;20400;-63
2023/12/07 05:23:33;;;;;;;13.23;5.65;;;3.30;81.40;;;;;;5055055;28;20114;-62
2023/12/07 05:26:00;;;;;;;8.55;5.63;;;3.30;81.50;;;;;;5047954;28;20041;-63
2023/12/07 05:28:26;;;;;;;9.43;5.13;;;3.30;81.60;;;;;;5065143;28;20039;-63
2023/12/07 05:30:52;;;;;;;12.30;6.43;;;3.30;81.60;;;;;;5057830;28;20040;-63
2023/12/07 05:33:21;;;;;;;11.73;4.88;;;3.40;81.80;;;;;;5062401;28;20556;-63
2023/12/07 05:35:48;;;;;;;7.90;4.57;;;3.40;81.90;;;;;;5052752;28;20029;-63
2023/12/07 05:38:13;;;;;;;28.42;5.88;;;3.40;81.80;;;;;;5049444;28;20060;-63
2023/12/07 05:40:39;;;;;;;44.05;5.00;;;3.40;82.00;;;;;;5049192;28;20052;-62
2023/12/07 05:43:05;;;;;;;34.97;6.30;;;3.40;82.10;;;;;;5051637;28;20610;-63
2023/12/07 05:45:30;;;;;;;44.03;5.38;;;3.40;82.20;;;;;;5052816;28;20033;-63
2023/12/07 05:47:56;;;;;;;28.90;5.15;;;3.40;82.40;;;;;;5047558;28;20029;-63
2023/12/07 05:50:22;;;;;;;5.05;3.70;;;3.40;82.40;;;;;;5057824;28;20321;-63
2023/12/07 05:52:48;;;;;;;8.25;5.03;;;3.50;82.50;;;;;;5057258;28;20051;-62
2023/12/07 05:55:14;;;;;;;97.15;6.93;;;3.50;82.40;;;;;;5040558;28;20033;-63
2023/12/07 05:57:40;;;;;;;48.40;5.57;;;3.50;82.60;;;;;;5043381;28;20055;-63
2023/12/07 06:00:10;;;;;;;18.23;5.15;;;3.50;82.90;;;;;;5045475;28;20033;-63
2023/12/07 06:02:36;;;;;;;24.42;5.00;;;3.40;83.20;;;;;;5041470;28;20029;-63
2023/12/07 06:05:05;;;;;;;41.97;6.32;;;3.40;83.30;;;;;;5050440;28;20491;-63
2023/12/07 06:07:31;;;;;;;6.82;4.70;;;3.50;83.30;;;;;;5047963;28;20064;-63
2023/12/07 06:09:57;;;;;;;10.15;4.57;;;3.50;83.30;;;;;;5048467;28;20071;-63
2023/12/07 06:12:22;;;;;;;27.95;5.07;;;3.50;83.30;;;;;;5041813;28;20489;-63
2023/12/07 06:14:49;;;;;;;46.17;5.65;;;3.50;83.30;;;;;;5052917;28;20033;-63
2023/12/07 06:17:15;;;;;;;100.30;5.75;;;3.50;83.30;;;;;;5049203;28;20097;-63
2023/12/07 06:19:40;;;;;;;32.03;5.35;;;3.50;83.40;;;;;;5053605;28;20529;-63
2023/12/07 06:22:06;;;;;;;7.53;4.25;;;3.50;83.40;;;;;;5047901;28;20107;-63
2023/12/07 06:24:32;;;;;;;28.30;4.68;;;3.50;83.50;;;;;;5043414;28;20079;-63
2023/12/07 06:26:59;;;;;;;23.95;5.32;;;3.40;83.60;;;;;;5052037;28;20108;-63
2023/12/07 06:29:24;;;;;;;58.10;6.13;;;3.50;83.60;;;;;;5057615;28;20045;-63
2023/12/07 06:31:50;;;;;;;27.58;4.78;;;3.50;83.80;;;;;;5051755;28;20025;-61
2023/12/07 06:34:16;;;;;;;5.85;4.22;;;3.40;83.60;;;;;;5050393;28;20033;-61
2023/12/07 06:36:42;;;;;;;24.48;4.78;;;3.40;83.80;;;;;;5045560;28;20045;-61
2023/12/07 06:39:07;;;;;;;18.33;3.55;;;3.40;83.80;;;;;;5058049;28;20032;-61
2023/12/07 06:41:33;;;;;;;93.93;6.15;;;3.30;83.80;;;;;;5060962;28;20496;-61
2023/12/07 06:43:59;;;;;;;14.10;4.88;;;3.30;83.80;;;;;;5061379;28;20036;-61
2023/12/07 06:46:25;;;;;;;48.17;5.03;;;3.30;83.90;;;;;;5058058;28;20063;-61
2023/12/07 06:48:51;;;;;;;24.38;4.00;;;3.30;83.90;;;;;;5050915;28;20025;-62
2023/12/07 06:51:16;;;;;;;24.70;4.82;;;3.30;83.90;;;;;;5053496;28;20128;-62
2023/12/07 06:53:42;;;;;;;52.70;6.53;;;3.40;84.00;;;;;;5035444;28;20033;-62
2023/12/07 06:56:09;;;;;;;128.80;6.75;;;3.40;83.90;;;;;;5055481;28;20013;-63
2023/12/07 06:58:34;;;;;;;50.30;4.63;;;3.40;83.90;;;;;;5058254;28;20492;-63
2023/12/07 07:01:00;;;;;;;9.27;3.80;;;3.40;83.80;;;;;;5058579;28;20036;-63
2023/12/07 07:03:27;;;;;;;75.13;5.25;;;3.40;83.80;;;;;;5049772;28;20037;-63
2023/12/07 07:05:54;;;;;;;33.25;4.55;;;3.40;83.90;;;;;;5052248;28;20431;-62
2023/12/07 07:08:20;;;;;;;19.77;4.55;;;3.30;84.60;;;;;;5057063;28;20061;-63
2023/12/07 07:10:46;;;;;;;10.30;4.00;;;3.30;84.10;;;;;;5053987;28;20048;-63
2023/12/07 07:13:14;;;;;;;25.67;4.47;;;3.30;84.20;;;;;;5051117;28;20029;-63
2023/12/07 07:15:43;;;;;;;32.72;4.43;;;3.30;84.10;;;;;;5056503;28;20035;-63
2023/12/07 07:18:09;;;;;;;56.15;3.95;;;3.30;84.00;;;;;;5054958;28;20029;-63
2023/12/07 07:20:35;;;;;;;67.53;5.45;;;3.30;84.00;;;;;;5050481;28;20443;-63
2023/12/07 07:23:00;;;;;;;6.88;3.42;;;3.20;84.00;;;;;;5057144;28;20029;-63
2023/12/07 07:25:26;;;;;;;50.38;4.65;;;3.20;84.10;;;;;;5044861;28;20652;-63
2023/12/07 07:27:54;;;;;;;98.57;5.97;;;3.10;84.10;;;;;;5054835;28;20058;-63
2023/12/07 07:30:20;;;;;;;52.15;4.38;;;3.10;84.00;;;;;;5053757;28;20025;-63
2023/12/07 07:32:46;;;;;;;79.45;4.60;;;3.00;84.00;;;;;;5052259;28;20111;-63
2023/12/07 07:35:12;;;;;;;9.75;3.88;;;2.90;84.20;;;;;;5051503;28;20120;-63
2023/12/07 07:37:41;;;;;;;138.13;6.40;;;2.90;84.30;;;;;;5053225;28;20472;-63
2023/12/07 07:40:11;;;;;;;5.03;3.28;;;2.90;84.20;;;;;;5060901;28;20032;-63
2023/12/07 07:42:40;;;;;;;103.78;6.97;;;2.90;84.20;;;;;;5051712;28;20052;-63
2023/12/07 07:45:07;;;;;;;13.65;4.40;;;2.90;84.20;;;;;;5050318;28;20119;-63
2023/12/07 07:47:32;;;;;;;43.88;5.63;;;2.90;84.20;;;;;;5058220;28;20244;-63
2023/12/07 07:49:58;;;;;;;24.95;5.40;;;2.90;84.30;;;;;;5057479;28;20029;-63
2023/12/07 07:52:24;;;;;;;34.22;4.55;;;2.90;84.40;;;;;;5054614;28;20070;-63
2023/12/07 07:54:50;;;;;;;32.72;5.65;;;2.90;84.40;;;;;;5054187;28;20029;-63
2023/12/07 07:57:15;;;;;;;82.38;5.90;;;3.00;84.40;;;;;;5060208;28;20033;-63
2023/12/07 07:59:41;;;;;;;22.33;4.97;;;3.00;84.40;;;;;;5053668;28;20048;-63
2023/12/07 08:02:07;;;;;;;43.88;4.88;;;3.00;84.30;;;;;;5055125;28;21559;-64
2023/12/07 08:04:32;;;;;;;9.73;4.18;;;2.90;84.40;;;;;;5055761;28;20497;-63
2023/12/07 08:06:58;;;;;;;79.15;5.38;;;2.90;84.30;;;;;;5052233;28;20134;-63
2023/12/07 08:09:24;;;;;;;4.57;3.67;;;2.90;84.50;;;;;;5052153;28;20090;-63
2023/12/07 08:11:50;;;;;;;62.05;5.25;;;2.90;84.40;;;;;;5055333;28;20103;-63
2023/12/07 08:14:15;;;;;;;27.33;5.30;;;2.90;84.40;;;;;;5050856;28;20462;-63
2023/12/07 08:16:47;;;;;;;35.55;6.15;;;3.00;84.40;;;;;;5054563;28;20105;-63
2023/12/07 08:19:13;;;;;;;29.97;4.30;;;3.00;84.40;;;;;;5052620;28;20066;-63
2023/12/07 08:21:39;;;;;;;6.88;4.20;;;2.90;85.00;;;;;;5048246;28;20029;-63
2023/12/07 08:24:05;;;;;;;12.13;4.28;;;2.90;84.50;;;;;;5052978;28;20035;-63
2023/12/07 08:26:32;;;;;;;18.35;5.88;;;2.90;84.60;;;;;;5055840;28;20061;-63
2023/12/07 08:28:57;;;;;;;57.83;5.88;;;3.00;84.70;;;;;;5056532;28;20024;-63
2023/12/07 08:31:24;;;;;;;33.25;5.38;;;3.00;84.70;;;;;;5057342;28;20365;-63
2023/12/07 08:33:50;;;;;;;27.83;5.50;;;3.10;84.60;;;;;;5052906;28;20036;-63
2023/12/07 08:36:16;;;;;;;66.07;6.63;;;3.10;84.50;;;;;;5049953;28;20037;-63
2023/12/07 08:38:42;;;;;;;73.57;6.35;;;3.10;84.40;;;;;;5051806;28;20037;-63
2023/12/07 08:41:08;;;;;;;90.93;6.63;;;3.10;84.50;;;;;;5054026;28;20056;-63
2023/12/07 08:43:33;;;;;;;7.53;5.55;;;3.10;84.60;;;;;;5053681;28;20573;-63
2023/12/07 08:45:59;;;;;;;14.82;6.30;;;3.00;84.50;;;;;;5054196;28;20521;-63
2023/12/07 08:48:25;;;;;;;13.15;6.47;;;3.00;84.70;;;;;;5056690;28;20052;-63
2023/12/07 08:50:51;;;;;;;58.92;6.28;;;3.00;84.80;;;;;;5048004;28;20036;-61
2023/12/07 08:53:17;;;;;;;5.72;4.93;;;3.00;84.80;;;;;;5054890;28;20033;-63
2023/12/07 08:55:42;;;;;;;10.05;6.07;;;3.00;84.90;;;;;;5045820;28;20045;-61
2023/12/07 08:58:10;;;;;;;20.98;7.07;;;3.10;84.90;;;;;;5047650;28;20060;-62
2023/12/07 09:00:37;;;;;;;7.47;5.05;;;3.10;84.80;;;;;;5055125;28;20036;-63
2023/12/07 09:03:03;;;;;;;8.88;5.50;;;3.20;84.80;;;;;;5056588;28;20025;-61
2023/12/07 09:05:29;;;;;;;64.50;7.65;;;3.20;84.70;;;;;;5045337;28;20043;-62
2023/12/07 09:07:56;;;;;;;16.70;5.95;;;3.30;84.70;;;;;;5051297;28;20032;-62
2023/12/07 09:10:22;;;;;;;25.65;5.60;;;3.30;84.50;;;;;;5051200;28;20079;-62
2023/12/07 09:12:48;;;;;;;25.30;7.15;;;3.30;84.60;;;;;;5051580;28;20021;-63
2023/12/07 09:15:14;;;;;;;24.50;6.20;;;3.30;84.60;;;;;;5052944;28;20035;-62
2023/12/07 09:17:40;;;;;;;7.88;4.45;;;3.30;84.50;;;;;;5057631;28;20033;-61
2023/12/07 09:20:11;;;;;;;24.67;5.43;;;3.30;84.60;;;;;;5056745;28;20075;-62
2023/12/07 09:22:42;;;;;;;29.85;5.07;;;3.30;84.60;;;;;;5050973;28;20029;-62
2023/12/07 09:25:08;;;;;;;51.65;7.03;;;3.20;84.60;;;;;;5052269;28;20155;-64
2023/12/07 09:27:37;;;;;;;10.02;5.63;;;3.20;84.70;;;;;;5049471;28;20095;-63
2023/12/07 09:30:16;;;;;;;15.77;6.70;;;3.20;84.70;;;;;;5056941;28;20031;-63
2023/12/07 09:32:42;;;;;;;6.85;4.70;;;3.20;84.70;;;;;;5048638;28;20110;-62
2023/12/07 09:35:18;;;;;;;45.15;6.05;;;3.20;84.80;;;;;;5049112;28;20025;-63
2023/12/07 09:37:45;;;;;;;46.20;6.45;;;3.20;84.80;;;;;;5051121;28;20108;-63
2023/12/07 09:40:18;;;;;;;45.42;5.28;;;3.10;84.70;;;;;;5058107;28;20486;-63
2023/12/07 09:42:44;;;;;;;31.75;5.10;;;3.10;84.80;;;;;;5049109;28;20476;-63
2023/12/07 09:45:11;;;;;;;6.53;4.45;;;3.10;85.00;;;;;;5053823;28;20033;-62
2023/12/07 09:47:38;;;;;;;7.50;4.88;;;3.10;85.00;;;;;;5050284;28;20508;-63
2023/12/07 09:50:06;;;;;;;10.48;5.05;;;3.20;85.00;;;;;;5061557;28;20025;-63
2023/12/07 09:52:32;;;;;;;22.98;4.40;;;3.20;85.00;;;;;;5048104;28;20142;-63
2023/12/07 09:55:00;;;;;;;7.10;4.32;;;3.20;85.00;;;;;;5051404;28;20029;-63
2023/12/07 09:57:25;;;;;;;14.35;4.25;;;3.30;85.00;;;;;;5059404;28;20033;-63
2023/12/07 09:59:51;;;;;;;4.55;2.85;;;3.30;84.80;;;;;;5053944;28;20569;-63
2023/12/07 10:02:17;;;;;;;25.85;4.05;;;3.30;84.80;;;;;;5057006;28;20075;-63
2023/12/07 10:04:43;;;;;;;23.63;4.70;;;3.30;84.80;;;;;;5051631;28;20044;-63
2023/12/07 10:07:09;;;;;;;15.07;3.70;;;3.40;84.80;;;;;;5051316;28;20048;-63
2023/12/07 10:09:41;;;;;;;22.25;3.85;;;3.40;84.70;;;;;;5052041;28;20091;-64
2023/12/07 10:12:07;;;;;;;3.60;2.90;;;3.40;84.60;;;;;;5053217;28;20037;-63
2023/12/07 10:14:33;;;;;;;4.45;3.33;;;3.40;84.70;;;;;;5051873;28;20039;-63
2023/12/07 10:16:59;;;;;;;23.80;3.35;;;3.40;84.80;;;;;;5059266;28;20498;-63
2023/12/07 10:19:27;;;;;;;4.82;3.28;;;3.40;85.00;;;;;;5055566;28;20482;-63
2023/12/07 10:21:53;;;;;;;6.40;3.53;;;3.30;85.00;;;;;;5055651;28;20056;-63
2023/12/07 10:24:24;;;;;;;6.65;3.88;;;3.30;85.20;;;;;;5043692;28;20052;-63
2023/12/07 10:26:51;;;;;;;4.57;3.97;;;3.30;85.10;;;;;;5058147;28;20487;-63
2023/12/07 10:29:20;;;;;;;4.65;3.88;;;3.40;85.30;;;;;;5058646;28;20381;-64
2023/12/07 10:31:49;;;;;;;4.93;4.13;;;3.40;85.80;;;;;;5040422;28;20029;-63
2023/12/07 10:34:20;;;;;;;6.05;3.92;;;3.40;85.20;;;;;;5037624;28;20099;-62
2023/12/07 10:36:47;;;;;;;35.33;5.50;;;3.50;85.10;;;;;;5048523;28;20031;-62
2023/12/07 10:39:13;;;;;;;30.60;4.80;;;3.50;85.20;;;;;;5050854;28;20037;-63
2023/12/07 10:41:42;;;;;;;6.13;3.92;;;3.50;85.10;;;;;;5040723;28;20041;-62
2023/12/07 10:44:11;;;;;;;5.88;4.10;;;3.50;85.10;;;;;;5049660;28;20037;-62
2023/12/07 10:46:39;;;;;;;48.63;4.47;;;3.50;85.20;;;;;;5051885;28;20072;-64
2023/12/07 10:49:07;;;;;;;7.22;4.07;;;3.50;85.10;;;;;;5042799;28;20030;-62
2023/12/07 10:51:57;;;;;;;5.72;3.38;;;3.60;85.20;;;;;;5052256;28;20032;-62
2023/12/07 10:54:32;;;;;;;8.10;4.13;;;3.60;85.20;;;;;;5050435;28;20396;-63
2023/12/07 10:57:02;;;;;;;6.18;3.83;;;3.60;85.20;;;;;;5055706;28;20017;-62
2023/12/07 10:59:28;;;;;;;18.80;4.05;;;3.60;85.00;;;;;;5046035;28;20048;-62
2023/12/07 11:01:56;;;;;;;5.63;4.30;;;3.70;85.10;;;;;;5053431;28;20104;-62
2023/12/07 11:04:23;;;;;;;4.60;3.80;;;3.70;85.40;;;;;;5046441;28;20064;-62
2023/12/07 11:06:52;;;;;;;8.00;4.10;;;3.70;85.70;;;;;;5049705;28;20033;-60
2023/12/07 11:09:24;;;;;;;9.52;3.90;;;3.80;85.10;;;;;;5049152;28;20040;-62
2023/12/07 11:12:05;;;;;;;24.30;5.70;;;3.80;85.10;;;;;;5054428;28;20090;-61
2023/12/07 11:14:32;;;;;;;8.43;4.60;;;3.80;85.00;;;;;;5051034;28;20440;-61
2023/12/07 11:16:58;;;;;;;6.78;4.68;;;3.80;85.00;;;;;;5042731;28;20163;-60
2023/12/07 11:19:33;;;;;;;9.77;5.43;;;3.80;85.10;;;;;;5049918;28;20476;-60
2023/12/07 11:22:03;;;;;;;10.75;5.72;;;3.80;85.20;;;;;;5052480;28;20032;-63
2023/12/07 11:24:30;;;;;;;6.90;4.43;;;3.80;85.30;;;;;;5040380;28;20735;-60
2023/12/07 11:26:56;;;;;;;9.20;5.57;;;3.80;85.30;;;;;;5053559;28;20029;-60
2023/12/07 11:29:24;;;;;;;35.72;8.10;;;3.80;85.30;;;;;;5052036;28;20484;-60
2023/12/07 11:31:50;;;;;;;22.05;6.75;;;3.80;85.40;;;;;;5057409;28;20024;-65
2023/12/07 11:34:52;;;;;;;14.77;6.40;;;3.90;85.40;;;;;;5034926;28;20044;-60
2023/12/07 11:37:17;;;;;;;11.80;6.13;;;3.90;85.30;;;;;;4990633;28;20096;-60
2023/12/07 11:39:46;;;;;;;14.40;7.57;;;3.90;85.50;;;;;;5047640;28;20060;-61
2023/12/07 11:42:19;;;;;;;14.50;7.20;;;4.00;85.50;;;;;;5060640;28;20426;-61
2023/12/07 11:44:50;;;;;;;13.50;6.00;;;4.10;85.40;;;;;;5056218;28;20435;-60
2023/12/07 11:47:18;;;;;;;13.07;7.37;;;4.10;85.30;;;;;;5050537;28;20468;-61
2023/12/07 11:49:44;;;;;;;10.85;7.05;;;4.20;85.30;;;;;;5050547;28;20044;-60
2023/12/07 11:52:14;;;;;;;11.60;7.13;;;4.20;85.20;;;;;;5047284;28;20041;-60
2023/12/07 11:54:41;;;;;;;14.52;7.10;;;4.20;85.10;;;;;;5047035;28;20488;-62
2023/12/07 11:57:07;;;;;;;16.40;7.35;;;4.30;85.10;;;;;;5043810;28;20434;-63
2023/12/07 11:59:33;;;;;;;13.75;7.82;;;4.30;85.10;;;;;;5050811;28;20020;-63
2023/12/07 12:02:04;;;;;;;17.58;7.57;;;4.40;85.10;;;;;;5054322;28;20107;-63
2023/12/07 12:04:30;;;;;;;15.32;9.15;;;4.40;85.10;;;;;;5037806;28;20433;-63
2023/12/07 12:06:56;;;;;;;16.92;8.07;;;4.40;85.10;;;;;;5047069;28;20033;-61
2023/12/07 12:09:23;;;;;;;15.10;7.78;;;4.40;85.10;;;;;;5044668;28;20041;-63
2023/12/07 12:11:49;;;;;;;23.35;9.93;;;4.40;85.20;;;;;;5034479;28;20487;-63
2023/12/07 12:14:16;;;;;;;17.48;7.57;;;4.40;85.20;;;;;;5041617;28;20029;-63
2023/12/07 12:16:51;;;;;;;17.98;8.60;;;4.40;85.20;;;;;;5041798;28;20025;-63
2023/12/07 12:19:16;;;;;;;18.17;8.63;;;4.40;85.30;;;;;;5038309;28;20044;-63
2023/12/07 12:21:46;;;;;;;14.60;8.32;;;4.40;85.40;;;;;;5043802;28;20032;-63
2023/12/07 12:24:12;;;;;;;18.80;8.32;;;4.40;85.50;;;;;;5034335;28;20025;-63
2023/12/07 12:26:41;;;;;;;24.17;10.65;;;4.40;85.50;;;;;;5044679;28;20052;-62
2023/12/07 12:29:11;;;;;;;13.07;9.05;;;4.40;85.50;;;;;;5051029;28;20038;-62
2023/12/07 12:31:38;;;;;;;14.10;8.27;;;4.40;85.70;;;;;;5050407;28;20036;-64
2023/12/07 12:34:08;;;;;;;11.70;8.57;;;4.40;85.60;;;;;;5054948;28;20040;-63
2023/12/07 12:36:34;;;;;;;15.90;9.00;;;4.50;85.60;;;;;;5047498;28;20025;-63
2023/12/07 12:39:02;;;;;;;13.50;8.80;;;4.50;85.50;;;;;;5040690;28;20499;-63
2023/12/07 12:41:30;;;;;;;23.55;8.80;;;4.60;85.50;;;;;;5043442;28;20128;-61
2023/12/07 12:43:56;;;;;;;21.52;9.52;;;4.60;85.30;;;;;;5051788;28;20932;-62
2023/12/07 12:46:22;;;;;;;17.63;8.52;;;4.60;85.40;;;;;;5049651;28;20126;-62
2023/12/07 12:48:56;;;;;;;13.73;8.55;;;4.60;85.40;;;;;;5044871;28;20039;-63
2023/12/07 12:51:25;;;;;;;14.90;7.97;;;4.60;85.40;;;;;;5050365;28;20041;-63